createdAt,value
2018-05-08T00:02:16.562Z,100895.17
2018-05-08T00:04:45.737Z,100892.98
2018-05-08T00:07:14.128Z,100896.47
2018-05-08T00:09:42.522Z,100898.61
2018-05-08T00:12:10.946Z,100893.83
2018-05-08T00:14:39.367Z,100893.36
2018-05-08T00:17:07.787Z,100889.00
2018-05-08T00:19:36.930Z,100891.61
2018-05-08T00:22:05.953Z,100883.78
2018-05-08T00:24:34.376Z,100881.14
2018-05-08T00:27:02.785Z,100885.02
2018-05-08T00:29:31.170Z,100878.46
2018-05-08T00:31:59.595Z,100877.16
2018-05-08T00:34:28.002Z,100882.37
2018-05-08T00:36:58.096Z,100880.58
2018-05-08T00:39:26.489Z,100870.11
2018-05-08T00:41:54.905Z,100864.02
2018-05-08T00:44:23.419Z,100863.58
2018-05-08T00:46:51.854Z,100861.39
2018-05-08T00:49:20.268Z,100858.80
2018-05-08T00:51:48.658Z,100853.11
2018-05-08T00:54:17.074Z,100855.76
2018-05-08T00:56:45.542Z,100847.48
2018-05-08T00:59:14.741Z,100847.04
2018-05-08T01:01:43.159Z,100841.34
2018-05-08T01:04:11.564Z,100839.58
2018-05-08T01:06:40.733Z,100839.11
2018-05-08T01:09:09.138Z,100841.27
2018-05-08T01:11:38.341Z,100843.89
2018-05-08T01:14:07.509Z,100844.28
2018-05-08T01:16:35.905Z,100839.48
2018-05-08T01:19:04.377Z,100844.69
2018-05-08T01:21:32.779Z,100841.63
2018-05-08T01:24:01.162Z,100847.30
2018-05-08T01:26:29.557Z,100847.32
2018-05-08T01:28:57.963Z,100843.36
2018-05-08T01:31:26.350Z,100852.11
2018-05-08T01:33:55.513Z,100839.03
2018-05-08T01:36:23.926Z,100843.36
2018-05-08T01:38:53.101Z,100840.34
2018-05-08T01:41:21.630Z,100838.18
2018-05-08T01:43:50.043Z,100834.69
2018-05-08T01:46:18.464Z,100831.62
2018-05-08T01:48:46.889Z,100832.47
2018-05-08T01:51:16.219Z,100831.16
2018-05-08T01:53:44.660Z,100824.19
2018-05-08T01:56:13.022Z,100822.09
2018-05-08T01:58:41.421Z,100819.08
2018-05-08T02:01:10.601Z,100814.75
2018-05-08T02:03:39.858Z,100821.24
2018-05-08T02:06:08.274Z,100815.97
2018-05-08T02:08:36.780Z,100808.12
2018-05-08T02:11:05.186Z,100808.08
2018-05-08T02:13:33.570Z,100809.39
2018-05-08T02:16:02.802Z,100802.89
2018-05-08T02:18:31.245Z,100803.75
2018-05-08T02:21:00.440Z,100803.32
2018-05-08T02:23:28.822Z,100801.12
2018-05-08T02:25:58.078Z,100798.50
2018-05-08T02:28:27.186Z,100798.93
2018-05-08T02:30:55.655Z,100792.00
2018-05-08T02:33:24.094Z,100789.44
2018-05-08T02:35:53.261Z,100790.68
2018-05-08T02:38:21.651Z,100787.61
2018-05-08T02:40:50.056Z,100784.98
2018-05-08T02:43:18.480Z,100787.06
2018-05-08T02:45:46.983Z,100789.22
2018-05-08T02:48:15.387Z,100787.86
2018-05-08T02:50:43.786Z,100787.38
2018-05-08T02:53:12.994Z,100786.08
2018-05-08T02:55:42.204Z,100787.36
2018-05-08T02:58:11.365Z,100783.86
2018-05-08T03:00:39.778Z,100779.48
2018-05-08T03:03:08.169Z,100776.45
2018-05-08T03:05:37.415Z,100780.36
2018-05-08T03:08:05.823Z,100774.28
2018-05-08T03:10:34.231Z,100773.79
2018-05-08T03:13:03.441Z,100776.84
2018-05-08T03:15:32.603Z,100784.59
2018-05-08T03:18:01.054Z,100778.08
2018-05-08T03:20:29.477Z,100786.30
2018-05-08T03:22:57.902Z,100787.14
2018-05-08T03:25:27.071Z,100785.34
2018-05-08T03:27:55.471Z,100784.02
2018-05-08T03:30:24.668Z,100783.98
2018-05-08T03:32:53.062Z,100783.05
2018-05-08T03:35:22.293Z,100776.11
2018-05-08T03:37:50.745Z,100780.81
2018-05-08T03:40:20.151Z,100779.45
2018-05-08T03:42:48.550Z,100778.08
2018-05-08T03:45:17.738Z,100772.40
2018-05-08T03:47:46.935Z,100769.25
2018-05-08T03:50:15.344Z,100771.06
2018-05-08T03:52:43.786Z,100765.78
2018-05-08T03:55:12.174Z,100764.41
2018-05-08T03:57:40.590Z,100766.17
2018-05-08T04:00:09.755Z,100763.10
2018-05-08T04:02:55.810Z,100765.31
2018-05-08T04:05:42.026Z,100760.93
2018-05-08T04:08:23.031Z,100764.37
2018-05-08T04:10:51.385Z,100759.20
2018-05-08T04:13:19.784Z,100761.84
2018-05-08T04:15:48.941Z,100762.31
2018-05-08T04:18:17.399Z,100761.88
2018-05-08T04:20:46.877Z,100751.03
2018-05-08T04:23:15.297Z,100749.77
2018-05-08T04:25:43.689Z,100749.44
2018-05-08T04:28:12.130Z,100746.87
2018-05-08T04:30:41.478Z,100744.33
2018-05-08T04:33:09.893Z,100740.91
2018-05-08T04:35:38.304Z,100744.02
2018-05-08T04:38:07.493Z,100743.64
2018-05-08T04:40:35.894Z,100743.23
2018-05-08T04:43:05.063Z,100743.27
2018-05-08T04:45:33.545Z,100744.16
2018-05-08T04:48:02.039Z,100742.94
2018-05-08T04:50:30.427Z,100737.79
2018-05-08T04:52:58.853Z,100742.64
2018-05-08T04:55:27.237Z,100736.19
2018-05-08T04:57:55.696Z,100733.62
2018-05-08T05:00:25.059Z,100731.96
2018-05-08T05:02:53.430Z,100729.81
2018-05-08T05:05:21.904Z,100727.73
2018-05-08T05:07:50.336Z,100726.92
2018-05-08T05:10:18.740Z,100726.95
2018-05-08T05:12:47.899Z,100727.86
2018-05-08T05:15:16.293Z,100722.22
2018-05-08T05:17:44.702Z,100730.47
2018-05-08T05:20:13.268Z,100721.70
2018-05-08T05:22:41.682Z,100721.69
2018-05-08T05:25:10.839Z,100723.80
2018-05-08T05:27:39.225Z,100720.20
2018-05-08T05:30:07.631Z,100714.05
2018-05-08T05:32:36.027Z,100710.95
2018-05-08T05:35:04.428Z,100714.39
2018-05-08T05:37:33.594Z,100712.55
2018-05-08T05:40:02.077Z,100714.25
2018-05-08T05:42:30.536Z,100718.13
2018-05-08T05:44:59.012Z,100713.41
2018-05-08T05:47:28.448Z,100715.34
2018-05-08T05:49:56.874Z,100711.28
2018-05-08T05:52:26.037Z,100708.48
2018-05-08T05:54:54.464Z,100712.87
2018-05-08T05:57:22.908Z,100708.73
2018-05-08T05:59:51.298Z,100702.80
2018-05-08T06:02:19.675Z,100707.23
2018-05-08T06:04:48.057Z,100701.36
2018-05-08T06:07:16.468Z,100696.75
2018-05-08T06:09:45.615Z,100690.91
2018-05-08T06:12:13.995Z,100685.27
2018-05-08T06:14:42.386Z,100688.44
2018-05-08T06:17:12.547Z,100691.74
2018-05-08T06:19:41.091Z,100689.61
2018-05-08T06:22:09.489Z,100686.59
2018-05-08T06:24:37.884Z,100687.30
2018-05-08T06:27:06.323Z,100689.62
2018-05-08T06:29:34.756Z,100692.35
2018-05-08T06:32:03.121Z,100686.97
2018-05-08T06:34:31.490Z,100684.72
2018-05-08T06:36:59.886Z,100689.28
2018-05-08T06:39:28.361Z,100684.35
2018-05-08T06:41:56.745Z,100677.53
2018-05-08T06:44:25.081Z,100675.16
2018-05-08T06:46:54.220Z,100672.72
2018-05-08T06:49:22.693Z,100674.87
2018-05-08T06:51:53.974Z,100673.47
2018-05-08T06:54:22.368Z,100670.87
2018-05-08T06:56:50.761Z,100673.67
2018-05-08T06:59:19.982Z,100673.09
2018-05-08T07:01:49.186Z,100671.50
2018-05-08T07:04:18.370Z,100675.13
2018-05-08T07:06:46.775Z,100669.61
2018-05-08T07:09:15.968Z,100673.16
2018-05-08T07:11:44.382Z,100671.98
2018-05-08T07:14:12.781Z,100667.98
2018-05-08T07:16:41.211Z,100667.73
2018-05-08T07:19:10.474Z,100665.22
2018-05-08T07:21:38.867Z,100657.70
2018-05-08T07:24:07.286Z,100655.52
2018-05-08T07:26:35.676Z,100660.78
2018-05-08T07:29:04.834Z,100654.02
2018-05-08T07:31:33.218Z,100659.96
2018-05-08T07:34:01.629Z,100651.82
2018-05-08T07:36:30.105Z,100649.66
2018-05-08T07:38:58.518Z,100655.52
2018-05-08T07:41:27.821Z,100647.02
2018-05-08T07:43:56.978Z,100656.47
2018-05-08T07:46:25.383Z,100647.96
2018-05-08T07:48:53.762Z,100650.52
2018-05-08T07:51:22.139Z,100654.30
2018-05-08T07:53:50.521Z,100653.41
2018-05-08T07:56:18.913Z,100654.80
2018-05-08T07:58:47.323Z,100650.11
2018-05-08T08:01:16.515Z,100646.77
2018-05-08T08:03:45.793Z,100648.95
2018-05-08T08:06:14.173Z,100652.14
2018-05-08T08:08:42.548Z,100650.21
2018-05-08T08:11:10.927Z,100648.95
2018-05-08T08:13:39.309Z,100653.40
2018-05-08T08:16:07.967Z,100645.22
2018-05-08T08:18:36.350Z,100644.27
2018-05-08T08:21:04.739Z,100637.31
2018-05-08T08:23:33.119Z,100640.11
2018-05-08T08:26:01.522Z,100631.28
2018-05-08T08:28:29.913Z,100627.80
2018-05-08T08:30:58.291Z,100630.43
2018-05-08T08:36:24.039Z,100626.33
2018-05-08T08:38:53.169Z,100620.45
2018-05-08T08:41:22.310Z,100620.98
2018-05-08T08:43:50.889Z,100617.36
2018-05-08T08:46:19.230Z,100617.54
2018-05-08T08:48:47.609Z,100616.92
2018-05-08T08:51:15.987Z,100610.44
2018-05-08T08:53:44.380Z,100611.59
2018-05-08T08:56:12.778Z,100609.50
2018-05-08T08:58:41.946Z,100616.36
2018-05-08T09:01:11.211Z,100615.22
2018-05-08T09:03:39.590Z,100609.01
2018-05-08T09:06:08.065Z,100607.20
2018-05-08T09:08:37.226Z,100606.37
2018-05-08T09:11:05.601Z,100607.17
2018-05-08T09:13:34.031Z,100599.63
2018-05-08T09:16:03.149Z,100600.55
2018-05-08T09:18:31.564Z,100595.59
2018-05-08T09:20:59.978Z,100591.52
2018-05-08T09:23:28.383Z,100590.30
2018-05-08T09:25:57.655Z,100585.27
2018-05-08T09:28:26.076Z,100587.32
2018-05-08T09:30:54.451Z,100584.03
2018-05-08T09:33:22.923Z,100571.35
2018-05-08T09:35:52.075Z,100574.76
2018-05-08T09:38:20.458Z,100571.01
2018-05-08T09:40:48.895Z,100568.34
2018-05-08T09:43:18.050Z,100565.06
2018-05-08T09:45:46.434Z,100559.39
2018-05-08T09:48:14.834Z,100557.09
2018-05-08T09:50:43.220Z,100553.45
2018-05-08T09:53:11.660Z,100547.10
2018-05-08T09:55:40.051Z,100536.98
2018-05-08T09:58:08.434Z,100538.54
2018-05-08T10:00:37.190Z,100531.34
2018-05-08T10:03:06.366Z,100524.83
2018-05-08T10:05:34.772Z,100527.48
2018-05-08T10:08:04.007Z,100527.75
2018-05-08T10:10:32.387Z,100523.99
2018-05-08T10:13:00.801Z,100517.88
2018-05-08T10:15:29.196Z,100515.44
2018-05-08T10:17:57.647Z,100513.95
2018-05-08T10:20:26.111Z,100513.30
2018-05-08T10:22:54.691Z,100508.41
2018-05-08T10:25:23.869Z,100502.19
2018-05-08T10:27:52.324Z,100491.39
2018-05-08T10:30:20.818Z,100498.06
2018-05-08T10:32:49.225Z,100488.27
2018-05-08T10:35:17.627Z,100488.61
2018-05-08T10:37:46.805Z,100487.73
2018-05-08T10:40:15.272Z,100491.34
2018-05-08T10:42:44.577Z,100482.39
2018-05-08T10:45:12.910Z,100476.92
2018-05-08T10:47:42.000Z,100478.27
2018-05-08T10:50:11.193Z,100475.00
2018-05-08T10:52:40.511Z,100476.31
2018-05-08T10:55:10.351Z,100472.70
2018-05-08T10:57:38.739Z,100471.48
2018-05-08T11:00:07.209Z,100465.47
2018-05-08T11:02:35.599Z,100460.70
2018-05-08T11:05:05.551Z,100455.65
2018-05-08T11:07:33.942Z,100463.13
2018-05-08T11:10:02.336Z,100453.70
2018-05-08T11:12:30.758Z,100442.97
2018-05-08T11:14:59.157Z,100444.50
2018-05-08T11:17:27.593Z,100450.78
2018-05-08T11:19:56.771Z,100434.45
2018-05-08T11:22:25.437Z,100437.72
2018-05-08T11:24:53.850Z,100430.60
2018-05-08T11:27:22.263Z,100440.48
2018-05-08T11:29:52.019Z,100437.94
2018-05-08T11:32:20.407Z,100431.52
2018-05-08T11:34:48.822Z,100420.08
2018-05-08T11:37:17.227Z,100421.38
2018-05-08T11:39:46.927Z,100415.44
2018-05-08T11:42:15.326Z,100415.84
2018-05-08T11:44:44.645Z,100416.74
2018-05-08T11:47:12.974Z,100417.00
2018-05-08T11:49:41.606Z,100409.80
2018-05-08T11:52:10.758Z,100408.87
2018-05-08T11:54:39.177Z,100407.95
2018-05-08T11:57:07.567Z,100402.61
2018-05-08T11:59:37.681Z,100399.28
2018-05-08T12:02:07.303Z,100389.66
2018-05-08T12:04:36.460Z,100383.75
2018-05-08T12:07:04.830Z,100384.25
2018-05-08T12:09:33.201Z,100387.28
2018-05-08T12:12:01.607Z,100385.63
2018-05-08T12:14:30.133Z,100376.42
2018-05-08T12:16:58.702Z,100381.19
2018-05-08T12:19:27.137Z,100372.13
2018-05-08T12:21:55.553Z,100369.75
2018-05-08T12:24:24.002Z,100363.08
2018-05-08T12:26:52.465Z,100363.44
2018-05-08T12:29:21.605Z,100358.59
2018-05-08T12:31:50.029Z,100355.13
2018-05-08T12:34:18.398Z,100353.91
2018-05-08T12:36:46.786Z,100355.42
2018-05-08T12:39:15.182Z,100351.34
2018-05-08T12:41:43.581Z,100347.20
2018-05-08T12:44:12.870Z,100353.52
2018-05-08T12:46:41.270Z,100355.13
2018-05-08T12:49:10.444Z,100347.42
2018-05-08T12:51:38.834Z,100346.47
2018-05-08T12:54:07.329Z,100345.94
2018-05-08T12:56:36.495Z,100338.90
2018-05-08T12:59:04.993Z,100351.03
2018-05-08T13:01:33.314Z,100341.16
2018-05-08T13:04:02.550Z,100334.69
2018-05-08T13:06:30.966Z,100329.45
2018-05-08T13:08:59.486Z,100326.05
2018-05-08T13:11:28.661Z,100327.00
2018-05-08T13:13:57.036Z,100326.69
2018-05-08T13:16:25.505Z,100317.73
2018-05-08T13:18:53.886Z,100315.34
2018-05-08T13:21:22.270Z,100316.51
2018-05-08T13:23:50.668Z,100305.95
2018-05-08T13:26:19.046Z,100308.61
2018-05-08T13:28:47.431Z,100308.37
2018-05-08T13:31:15.819Z,100308.03
2018-05-08T13:33:44.226Z,100304.33
2018-05-08T13:36:12.723Z,100306.80
2018-05-08T13:38:41.138Z,100301.83
2018-05-08T13:41:09.625Z,100301.33
2018-05-08T13:43:38.027Z,100290.88
2018-05-08T13:46:06.466Z,100298.21
2018-05-08T13:48:34.913Z,100293.08
2018-05-08T13:51:03.389Z,100285.83
2018-05-08T13:53:31.790Z,100273.20
2018-05-08T13:56:00.172Z,100272.45
2018-05-08T13:58:28.554Z,100279.62
2018-05-08T14:00:57.023Z,100275.77
2018-05-08T14:03:25.421Z,100275.94
2018-05-08T14:05:53.860Z,100275.00
2018-05-08T14:08:22.295Z,100271.89
2018-05-08T14:10:50.719Z,100270.28
2018-05-08T14:13:19.149Z,100270.92
2018-05-08T14:15:47.559Z,100264.53
2018-05-08T14:18:16.780Z,100266.80
2018-05-08T14:20:45.246Z,100262.16
2018-05-08T14:23:14.406Z,100256.50
2018-05-08T14:25:42.846Z,100249.53
2018-05-08T14:28:11.214Z,100246.51
2018-05-08T14:30:40.425Z,100253.90
2018-05-08T14:33:08.790Z,100248.92
2018-05-08T14:35:37.210Z,100240.87
2018-05-08T14:38:05.725Z,100249.08
2018-05-08T14:40:34.119Z,100249.03
2018-05-08T14:43:02.510Z,100237.92
2018-05-08T14:45:30.897Z,100239.58
2018-05-08T14:47:59.373Z,100233.45
2018-05-08T14:50:27.925Z,100234.15
2018-05-08T14:52:56.310Z,100231.56
2018-05-08T14:55:24.696Z,100226.44
2018-05-08T14:57:53.175Z,100227.16
2018-05-08T15:00:21.663Z,100230.39
2018-05-08T15:02:50.053Z,100227.07
2018-05-08T15:05:18.625Z,100219.64
2018-05-08T15:07:46.999Z,100224.24
2018-05-08T15:10:15.411Z,100228.48
2018-05-08T15:12:43.833Z,100222.73
2018-05-08T15:15:12.266Z,100226.34
2018-05-08T15:17:40.653Z,100223.64
2018-05-08T15:20:09.110Z,100215.30
2018-05-08T15:22:38.258Z,100215.36
2018-05-08T15:25:06.632Z,100201.73
2018-05-08T15:27:35.046Z,100205.70
2018-05-08T15:30:03.731Z,100198.10
2018-05-08T15:32:32.065Z,100196.70
2018-05-08T15:35:00.495Z,100190.45
2018-05-08T15:37:28.917Z,100193.10
2018-05-08T15:39:58.075Z,100188.80
2018-05-08T15:42:27.217Z,100196.64
2018-05-08T15:45:00.860Z,100188.91
2018-05-08T15:47:29.238Z,100188.99
2018-05-08T15:49:57.698Z,100183.77
2018-05-08T15:52:26.088Z,100182.88
2018-05-08T15:54:54.476Z,100177.01
2018-05-08T15:57:22.881Z,100175.92
2018-05-08T15:59:51.312Z,100171.89
2018-05-08T16:02:20.516Z,100174.53
2018-05-08T16:04:49.696Z,100171.56
2018-05-08T16:07:18.188Z,100171.28
2018-05-08T16:09:46.574Z,100172.25
2018-05-08T16:12:14.992Z,100174.19
2018-05-08T16:14:44.183Z,100179.31
2018-05-08T16:17:13.380Z,100173.72
2018-05-08T16:19:42.547Z,100166.07
2018-05-08T16:22:10.994Z,100166.91
2018-05-08T16:24:39.379Z,100171.70
2018-05-08T16:27:07.773Z,100173.16
2018-05-08T16:29:36.194Z,100171.32
2018-05-08T16:32:04.570Z,100169.02
2018-05-08T16:34:33.008Z,100170.70
2018-05-08T16:37:01.413Z,100175.81
2018-05-08T16:39:29.833Z,100174.90
2018-05-08T16:41:58.203Z,100172.28
2018-05-08T16:44:26.619Z,100174.33
2018-05-08T16:46:55.778Z,100172.78
2018-05-08T16:49:24.225Z,100173.14
2018-05-08T16:51:52.672Z,100176.14
2018-05-08T16:54:21.922Z,100177.59
2018-05-08T16:56:50.320Z,100175.02
2018-05-08T16:59:18.703Z,100180.39
2018-05-08T17:01:47.113Z,100175.91
2018-05-08T17:04:15.528Z,100172.16
2018-05-08T17:06:44.683Z,100168.91
2018-05-08T17:09:13.114Z,100172.38
2018-05-08T17:11:42.350Z,100169.77
2018-05-08T17:14:10.759Z,100173.63
2018-05-08T17:16:39.172Z,100172.64
2018-05-08T17:19:08.394Z,100175.08
2018-05-08T17:21:36.787Z,100164.48
2018-05-08T17:24:05.209Z,100160.25
2018-05-08T17:26:34.401Z,100160.70
2018-05-08T17:29:02.778Z,100160.32
2018-05-08T17:31:31.206Z,100154.89
2018-05-08T17:33:59.638Z,100153.38
2018-05-08T17:36:28.076Z,100157.38
2018-05-08T17:38:56.482Z,100154.89
2018-05-08T17:41:25.651Z,100159.59
2018-05-08T17:43:54.091Z,100156.14
2018-05-08T17:46:22.482Z,100161.61
2018-05-08T17:48:50.904Z,100159.92
2018-05-08T17:51:19.339Z,100159.60
2018-05-08T17:53:47.741Z,100154.28
2018-05-08T17:56:16.116Z,100149.93
2018-05-08T17:58:44.536Z,100156.74
2018-05-08T18:01:12.963Z,100156.38
2018-05-08T18:03:41.356Z,100152.45
2018-05-08T18:06:11.880Z,100156.59
2018-05-08T18:08:40.333Z,100157.47
2018-05-08T18:11:08.762Z,100156.72
2018-05-08T18:13:37.193Z,100154.94
2018-05-08T18:16:05.587Z,100153.12
2018-05-08T18:18:34.747Z,100160.31
2018-05-08T18:21:03.183Z,100165.05
2018-05-08T18:23:32.355Z,100164.78
2018-05-08T18:26:00.764Z,100167.39
2018-05-08T18:28:29.942Z,100167.02
2018-05-08T18:30:58.370Z,100171.75
2018-05-08T18:33:26.764Z,100163.39
2018-05-08T18:35:55.183Z,100161.48
2018-05-08T18:38:23.596Z,100166.95
2018-05-08T18:40:52.875Z,100164.01
2018-05-08T18:43:21.342Z,100161.88
2018-05-08T18:45:49.775Z,100162.45
2018-05-08T18:48:19.017Z,100167.92
2018-05-08T18:50:47.407Z,100165.81
2018-05-08T18:53:15.812Z,100172.96
2018-05-08T18:55:44.237Z,100169.41
2018-05-08T18:58:13.404Z,100171.90
2018-05-08T19:00:47.371Z,100172.48
2018-05-08T19:03:15.784Z,100174.50
2018-05-08T19:05:44.222Z,100175.66
2018-05-08T19:08:12.645Z,100175.94
2018-05-08T19:10:41.083Z,100181.08
2018-05-08T19:13:10.279Z,100183.46
2018-05-08T19:15:45.855Z,100183.77
2018-05-08T19:18:14.266Z,100177.78
2018-05-08T19:20:42.673Z,100190.64
2018-05-08T19:23:11.074Z,100186.19
2018-05-08T19:25:40.252Z,100196.83
2018-05-08T19:28:14.159Z,100197.11
2018-05-08T19:30:42.583Z,100193.25
2018-05-08T19:33:10.968Z,100198.39
2018-05-08T19:35:44.896Z,100205.69
2018-05-08T19:38:16.267Z,100205.41
2018-05-08T19:40:44.718Z,100211.48
2018-05-08T19:43:13.169Z,100209.28
2018-05-08T19:45:41.645Z,100207.83
2018-05-08T19:48:10.054Z,100210.33
2018-05-08T19:50:39.243Z,100210.69
2018-05-08T19:53:07.636Z,100212.78
2018-05-08T19:55:36.809Z,100207.00
2018-05-08T19:58:05.250Z,100205.92
2018-05-08T20:00:33.680Z,100208.55
2018-05-08T20:03:02.109Z,100212.57
2018-05-08T20:05:30.506Z,100214.63
2018-05-08T20:07:58.938Z,100209.05
2018-05-08T20:10:27.371Z,100217.08
2018-05-08T20:12:56.118Z,100217.02
2018-05-08T20:15:24.521Z,100214.71
2018-05-08T20:17:53.740Z,100217.92
2018-05-08T20:20:22.166Z,100218.44
2018-05-08T20:22:50.572Z,100222.39
2018-05-08T20:25:19.011Z,100217.70
2018-05-08T20:27:47.427Z,100217.20
2018-05-08T20:30:15.832Z,100216.17
2018-05-08T20:32:45.001Z,100219.03
2018-05-08T20:35:13.401Z,100220.70
2018-05-08T20:37:41.786Z,100215.00
2018-05-08T20:40:10.171Z,100222.64
2018-05-08T20:42:38.601Z,100217.38
2018-05-08T20:45:07.025Z,100228.20
2018-05-08T20:47:36.514Z,100221.87
2018-05-08T20:50:04.964Z,100224.61
2018-05-08T20:52:33.414Z,100226.59
2018-05-08T20:55:01.809Z,100224.30
2018-05-08T20:57:31.007Z,100221.58
2018-05-08T20:59:59.408Z,100216.53
2018-05-08T21:02:28.648Z,100214.89
2018-05-08T21:04:57.080Z,100217.03
2018-05-08T21:07:25.528Z,100211.88
2018-05-08T21:09:53.967Z,100226.19
2018-05-08T21:12:22.379Z,100223.98
2018-05-08T21:14:50.850Z,100224.51
2018-05-08T21:17:19.255Z,100226.59
2018-05-08T21:19:47.687Z,100218.55
2018-05-08T21:22:16.888Z,100222.14
2018-05-08T21:24:46.117Z,100225.41
2018-05-08T21:27:14.549Z,100216.64
2018-05-08T21:29:48.433Z,100223.02
2018-05-08T21:32:16.850Z,100221.09
2018-05-08T21:34:45.286Z,100221.80
2018-05-08T21:37:13.794Z,100226.95
2018-05-08T21:39:42.292Z,100222.60
2018-05-08T21:42:10.708Z,100220.67
2018-05-08T21:44:39.881Z,100218.61
2018-05-08T21:47:08.387Z,100220.09
2018-05-08T21:49:37.580Z,100228.93
2018-05-08T21:52:06.005Z,100226.17
2018-05-08T21:54:34.444Z,100229.42
2018-05-08T21:57:02.894Z,100219.83
2018-05-08T21:59:31.363Z,100224.98
2018-05-08T22:01:59.818Z,100230.59
2018-05-08T22:04:29.019Z,100235.08
2018-05-08T22:06:58.223Z,100234.61
2018-05-08T22:09:27.401Z,100237.52
2018-05-08T22:11:55.853Z,100237.77
2018-05-08T22:14:24.308Z,100239.61
2018-05-08T23:10:38.984Z,100238.23
2018-05-08T23:13:07.353Z,100237.92
2018-05-08T23:15:35.782Z,100242.84
2018-05-08T23:18:06.125Z,100245.15
2018-05-08T23:20:34.504Z,100240.84
2018-05-08T23:23:02.934Z,100240.45
2018-05-08T23:25:31.431Z,100235.32
2018-05-08T23:27:59.971Z,100230.17
2018-05-08T23:30:29.178Z,100235.51
2018-05-08T23:32:57.738Z,100230.68
2018-05-08T23:35:26.164Z,100225.12
2018-05-08T23:37:54.595Z,100222.59
2018-05-08T23:40:22.992Z,100215.72
2018-05-08T23:42:51.387Z,100214.00
2018-05-08T23:45:20.558Z,100214.84
2018-05-08T23:47:48.983Z,100217.47
2018-05-08T23:50:18.165Z,100214.04
2018-05-08T23:52:46.562Z,100208.86
2018-05-08T23:55:15.725Z,100211.52
2018-05-08T23:57:44.106Z,100212.42
